sensor_id;sensor_type;location;lat;lon;timestamp;P1;durP1;ratioP1;P2;durP2;ratioP2
44276;SDS011;29973;43.742;1.236;2023-08-17T00:01:49;15.75;;;11.70;;
44276;SDS011;29973;43.742;1.236;2023-08-17T00:04:15;15.68;;;13.23;;
44276;SDS011;29973;43.742;1.236;2023-08-17T00:06:41;15.88;;;12.18;;
44276;SDS011;29973;43.742;1.236;2023-08-17T00:09:08;13.18;;;11.65;;
44276;SDS011;29973;43.742;1.236;2023-08-17T00:11:35;16.75;;;11.63;;
44276;SDS011;29973;43.742;1.236;2023-08-17T00:14:01;15.88;;;10.32;;
44276;SDS011;29973;43.742;1.236;2023-08-17T00:16:27;15.07;;;11.27;;
44276;SDS011;29973;43.742;1.236;2023-08-17T00:18:53;15.18;;;11.75;;
44276;SDS011;29973;43.742;1.236;2023-08-17T00:21:18;16.10;;;11.40;;
44276;SDS011;29973;43.742;1.236;2023-08-17T00:23:44;14.48;;;10.55;;
44276;SDS011;29973;43.742;1.236;2023-08-17T00:26:10;11.93;;;10.02;;
44276;SDS011;29973;43.742;1.236;2023-08-17T00:28:35;13.80;;;11.23;;
44276;SDS011;29973;43.742;1.236;2023-08-17T00:31:01;13.88;;;11.20;;
44276;SDS011;29973;43.742;1.236;2023-08-17T00:33:27;13.40;;;10.68;;
44276;SDS011;29973;43.742;1.236;2023-08-17T00:35:53;13.20;;;10.20;;
44276;SDS011;29973;43.742;1.236;2023-08-17T00:38:19;14.52;;;10.68;;
44276;SDS011;29973;43.742;1.236;2023-08-17T00:40:45;18.27;;;11.23;;
44276;SDS011;29973;43.742;1.236;2023-08-17T00:43:11;14.90;;;11.50;;
44276;SDS011;29973;43.742;1.236;2023-08-17T00:45:37;15.40;;;11.70;;
44276;SDS011;29973;43.742;1.236;2023-08-17T00:48:03;14.65;;;11.55;;
44276;SDS011;29973;43.742;1.236;2023-08-17T00:50:32;14.38;;;11.52;;
44276;SDS011;29973;43.742;1.236;2023-08-17T00:53:00;13.57;;;11.57;;
44276;SDS011;29973;43.742;1.236;2023-08-17T00:55:26;12.40;;;11.20;;
44276;SDS011;29973;43.742;1.236;2023-08-17T00:57:53;14.25;;;11.05;;
44276;SDS011;29973;43.742;1.236;2023-08-17T01:00:21;14.88;;;11.38;;
44276;SDS011;29973;43.742;1.236;2023-08-17T01:02:48;16.27;;;10.95;;
44276;SDS011;29973;43.742;1.236;2023-08-17T01:05:14;13.05;;;11.50;;
44276;SDS011;29973;43.742;1.236;2023-08-17T01:07:40;15.63;;;12.02;;
44276;SDS011;29973;43.742;1.236;2023-08-17T01:10:06;16.83;;;11.75;;
44276;SDS011;29973;43.742;1.236;2023-08-17T01:12:38;13.60;;;11.10;;
44276;SDS011;29973;43.742;1.236;2023-08-17T01:15:35;14.63;;;11.88;;
44276;SDS011;29973;43.742;1.236;2023-08-17T01:18:22;14.65;;;11.07;;
44276;SDS011;29973;43.742;1.236;2023-08-17T01:20:52;12.73;;;11.43;;
44276;SDS011;29973;43.742;1.236;2023-08-17T01:23:18;14.85;;;11.57;;
44276;SDS011;29973;43.742;1.236;2023-08-17T01:25:44;15.68;;;11.82;;
44276;SDS011;29973;43.742;1.236;2023-08-17T01:28:10;15.52;;;11.90;;
44276;SDS011;29973;43.742;1.236;2023-08-17T01:33:10;14.48;;;12.98;;
44276;SDS011;29973;43.742;1.236;2023-08-17T01:35:39;13.32;;;11.80;;
44276;SDS011;29973;43.742;1.236;2023-08-17T01:38:12;15.00;;;12.23;;
44276;SDS011;29973;43.742;1.236;2023-08-17T01:43:09;18.20;;;13.32;;
44276;SDS011;29973;43.742;1.236;2023-08-17T01:45:36;13.50;;;12.10;;
44276;SDS011;29973;43.742;1.236;2023-08-17T01:48:02;14.95;;;12.50;;
44276;SDS011;29973;43.742;1.236;2023-08-17T01:50:28;18.15;;;13.70;;
44276;SDS011;29973;43.742;1.236;2023-08-17T01:52:53;19.05;;;12.90;;
44276;SDS011;29973;43.742;1.236;2023-08-17T01:55:20;15.05;;;13.20;;
44276;SDS011;29973;43.742;1.236;2023-08-17T01:57:48;14.00;;;12.25;;
44276;SDS011;29973;43.742;1.236;2023-08-17T02:00:14;17.02;;;12.20;;
44276;SDS011;29973;43.742;1.236;2023-08-17T02:02:40;14.27;;;12.18;;
44276;SDS011;29973;43.742;1.236;2023-08-17T02:05:06;14.18;;;12.45;;
44276;SDS011;29973;43.742;1.236;2023-08-17T02:07:32;13.27;;;11.68;;
44276;SDS011;29973;43.742;1.236;2023-08-17T02:09:58;14.80;;;12.27;;
44276;SDS011;29973;43.742;1.236;2023-08-17T02:12:24;13.63;;;12.02;;
44276;SDS011;29973;43.742;1.236;2023-08-17T02:14:49;15.98;;;12.43;;
44276;SDS011;29973;43.742;1.236;2023-08-17T02:17:15;18.58;;;12.43;;
44276;SDS011;29973;43.742;1.236;2023-08-17T02:19:42;18.50;;;12.43;;
44276;SDS011;29973;43.742;1.236;2023-08-17T02:22:09;14.55;;;11.57;;
44276;SDS011;29973;43.742;1.236;2023-08-17T02:24:35;17.95;;;11.77;;
44276;SDS011;29973;43.742;1.236;2023-08-17T02:27:01;14.90;;;11.77;;
44276;SDS011;29973;43.742;1.236;2023-08-17T02:29:26;12.50;;;11.13;;
44276;SDS011;29973;43.742;1.236;2023-08-17T02:31:52;14.27;;;11.45;;
44276;SDS011;29973;43.742;1.236;2023-08-17T02:34:18;18.92;;;10.65;;
44276;SDS011;29973;43.742;1.236;2023-08-17T02:36:43;16.38;;;11.38;;
44276;SDS011;29973;43.742;1.236;2023-08-17T02:39:09;12.82;;;11.10;;
44276;SDS011;29973;43.742;1.236;2023-08-17T02:41:35;15.80;;;11.93;;
44276;SDS011;29973;43.742;1.236;2023-08-17T02:44:00;15.05;;;9.77;;
44276;SDS011;29973;43.742;1.236;2023-08-17T02:46:27;12.40;;;9.13;;
44276;SDS011;29973;43.742;1.236;2023-08-17T02:48:53;15.40;;;9.38;;
44276;SDS011;29973;43.742;1.236;2023-08-17T02:51:19;13.32;;;9.25;;
44276;SDS011;29973;43.742;1.236;2023-08-17T02:53:44;14.73;;;9.07;;
44276;SDS011;29973;43.742;1.236;2023-08-17T02:56:10;15.73;;;9.02;;
44276;SDS011;29973;43.742;1.236;2023-08-17T02:58:40;12.07;;;8.30;;
44276;SDS011;29973;43.742;1.236;2023-08-17T03:01:06;12.55;;;8.65;;
44276;SDS011;29973;43.742;1.236;2023-08-17T03:03:32;15.15;;;9.52;;
44276;SDS011;29973;43.742;1.236;2023-08-17T03:05:58;14.52;;;8.52;;
44276;SDS011;29973;43.742;1.236;2023-08-17T03:08:24;13.63;;;8.68;;
44276;SDS011;29973;43.742;1.236;2023-08-17T03:10:49;14.20;;;8.60;;
44276;SDS011;29973;43.742;1.236;2023-08-17T03:13:15;11.18;;;8.38;;
44276;SDS011;29973;43.742;1.236;2023-08-17T03:15:41;12.00;;;8.57;;
44276;SDS011;29973;43.742;1.236;2023-08-17T03:18:06;11.45;;;7.82;;
44276;SDS011;29973;43.742;1.236;2023-08-17T03:20:32;12.85;;;7.72;;
44276;SDS011;29973;43.742;1.236;2023-08-17T03:22:58;17.33;;;7.93;;
44276;SDS011;29973;43.742;1.236;2023-08-17T03:25:24;13.95;;;7.45;;
44276;SDS011;29973;43.742;1.236;2023-08-17T03:27:49;11.57;;;7.70;;
44276;SDS011;29973;43.742;1.236;2023-08-17T03:30:15;12.07;;;7.72;;
44276;SDS011;29973;43.742;1.236;2023-08-17T03:32:41;12.85;;;7.45;;
44276;SDS011;29973;43.742;1.236;2023-08-17T03:35:06;11.07;;;7.75;;
44276;SDS011;29973;43.742;1.236;2023-08-17T03:37:33;12.38;;;7.47;;
44276;SDS011;29973;43.742;1.236;2023-08-17T03:39:58;18.90;;;7.78;;
44276;SDS011;29973;43.742;1.236;2023-08-17T03:42:25;11.50;;;6.93;;
44276;SDS011;29973;43.742;1.236;2023-08-17T03:44:51;12.60;;;7.03;;
44276;SDS011;29973;43.742;1.236;2023-08-17T03:47:17;13.50;;;6.97;;
44276;SDS011;29973;43.742;1.236;2023-08-17T03:49:43;17.63;;;7.22;;
44276;SDS011;29973;43.742;1.236;2023-08-17T03:52:09;14.02;;;7.30;;
44276;SDS011;29973;43.742;1.236;2023-08-17T03:54:35;14.88;;;6.85;;
44276;SDS011;29973;43.742;1.236;2023-08-17T03:57:01;13.52;;;6.85;;
44276;SDS011;29973;43.742;1.236;2023-08-17T03:59:27;10.50;;;6.38;;
44276;SDS011;29973;43.742;1.236;2023-08-17T04:01:53;12.45;;;6.85;;
44276;SDS011;29973;43.742;1.236;2023-08-17T04:04:19;11.25;;;6.78;;
44276;SDS011;29973;43.742;1.236;2023-08-17T04:06:45;12.93;;;6.78;;
44276;SDS011;29973;43.742;1.236;2023-08-17T04:09:10;11.55;;;6.63;;
44276;SDS011;29973;43.742;1.236;2023-08-17T04:11:37;9.57;;;6.43;;
44276;SDS011;29973;43.742;1.236;2023-08-17T04:14:03;12.30;;;6.57;;
44276;SDS011;29973;43.742;1.236;2023-08-17T04:16:29;19.48;;;7.53;;
44276;SDS011;29973;43.742;1.236;2023-08-17T04:18:55;13.35;;;7.47;;
44276;SDS011;29973;43.742;1.236;2023-08-17T04:21:20;12.60;;;6.43;;
44276;SDS011;29973;43.742;1.236;2023-08-17T04:23:46;12.88;;;7.07;;
44276;SDS011;29973;43.742;1.236;2023-08-17T04:26:12;10.82;;;6.60;;
44276;SDS011;29973;43.742;1.236;2023-08-17T04:28:38;13.40;;;6.78;;
44276;SDS011;29973;43.742;1.236;2023-08-17T04:31:04;15.73;;;7.10;;
44276;SDS011;29973;43.742;1.236;2023-08-17T04:33:29;13.02;;;6.20;;
44276;SDS011;29973;43.742;1.236;2023-08-17T04:35:55;14.27;;;6.55;;
44276;SDS011;29973;43.742;1.236;2023-08-17T04:38:21;10.23;;;6.63;;
44276;SDS011;29973;43.742;1.236;2023-08-17T04:40:48;14.55;;;6.35;;
44276;SDS011;29973;43.742;1.236;2023-08-17T04:43:13;13.40;;;7.00;;
44276;SDS011;29973;43.742;1.236;2023-08-17T04:45:39;11.75;;;6.65;;
44276;SDS011;29973;43.742;1.236;2023-08-17T04:48:05;10.63;;;6.45;;
44276;SDS011;29973;43.742;1.236;2023-08-17T04:50:31;9.85;;;7.18;;
44276;SDS011;29973;43.742;1.236;2023-08-17T04:52:57;12.27;;;6.95;;
44276;SDS011;29973;43.742;1.236;2023-08-17T04:55:23;17.13;;;7.53;;
44276;SDS011;29973;43.742;1.236;2023-08-17T04:57:48;17.48;;;6.75;;
44276;SDS011;29973;43.742;1.236;2023-08-17T05:00:14;11.98;;;7.10;;
44276;SDS011;29973;43.742;1.236;2023-08-17T05:02:40;12.77;;;6.75;;
44276;SDS011;29973;43.742;1.236;2023-08-17T05:05:07;13.75;;;7.03;;
44276;SDS011;29973;43.742;1.236;2023-08-17T05:07:34;14.73;;;7.18;;
44276;SDS011;29973;43.742;1.236;2023-08-17T05:10:00;14.68;;;6.55;;
44276;SDS011;29973;43.742;1.236;2023-08-17T05:12:27;9.55;;;6.18;;
44276;SDS011;29973;43.742;1.236;2023-08-17T05:14:52;9.63;;;6.35;;
44276;SDS011;29973;43.742;1.236;2023-08-17T05:17:18;12.32;;;6.32;;
44276;SDS011;29973;43.742;1.236;2023-08-17T05:19:44;10.13;;;6.43;;
44276;SDS011;29973;43.742;1.236;2023-08-17T05:22:10;15.13;;;6.57;;
44276;SDS011;29973;43.742;1.236;2023-08-17T05:24:37;12.70;;;6.43;;
44276;SDS011;29973;43.742;1.236;2023-08-17T05:27:04;15.07;;;6.95;;
44276;SDS011;29973;43.742;1.236;2023-08-17T05:29:30;22.80;;;6.93;;
44276;SDS011;29973;43.742;1.236;2023-08-17T05:31:59;10.18;;;6.68;;
44276;SDS011;29973;43.742;1.236;2023-08-17T05:34:24;17.00;;;7.10;;
44276;SDS011;29973;43.742;1.236;2023-08-17T05:36:50;13.52;;;6.30;;
44276;SDS011;29973;43.742;1.236;2023-08-17T05:39:16;15.20;;;6.07;;
44276;SDS011;29973;43.742;1.236;2023-08-17T05:41:42;10.82;;;6.53;;
44276;SDS011;29973;43.742;1.236;2023-08-17T05:44:07;14.45;;;7.55;;
44276;SDS011;29973;43.742;1.236;2023-08-17T05:46:33;12.38;;;7.55;;
44276;SDS011;29973;43.742;1.236;2023-08-17T05:49:00;14.90;;;8.00;;
44276;SDS011;29973;43.742;1.236;2023-08-17T05:51:26;17.48;;;8.00;;
44276;SDS011;29973;43.742;1.236;2023-08-17T05:53:52;17.10;;;9.32;;
44276;SDS011;29973;43.742;1.236;2023-08-17T05:56:17;16.17;;;9.13;;
44276;SDS011;29973;43.742;1.236;2023-08-17T05:58:43;19.23;;;8.73;;
44276;SDS011;29973;43.742;1.236;2023-08-17T06:01:09;17.58;;;9.73;;
44276;SDS011;29973;43.742;1.236;2023-08-17T06:03:36;15.23;;;10.18;;
44276;SDS011;29973;43.742;1.236;2023-08-17T06:06:05;14.85;;;9.57;;
44276;SDS011;29973;43.742;1.236;2023-08-17T06:08:32;19.80;;;10.82;;
44276;SDS011;29973;43.742;1.236;2023-08-17T06:10:57;22.27;;;11.90;;
44276;SDS011;29973;43.742;1.236;2023-08-17T06:13:26;22.08;;;11.35;;
44276;SDS011;29973;43.742;1.236;2023-08-17T06:15:51;17.45;;;10.45;;
44276;SDS011;29973;43.742;1.236;2023-08-17T06:18:17;15.90;;;10.82;;
44276;SDS011;29973;43.742;1.236;2023-08-17T06:20:43;17.73;;;10.20;;
44276;SDS011;29973;43.742;1.236;2023-08-17T06:23:11;18.55;;;10.75;;
44276;SDS011;29973;43.742;1.236;2023-08-17T06:25:37;16.77;;;10.35;;
44276;SDS011;29973;43.742;1.236;2023-08-17T06:28:02;16.27;;;10.57;;
44276;SDS011;29973;43.742;1.236;2023-08-17T06:30:29;18.95;;;11.15;;
44276;SDS011;29973;43.742;1.236;2023-08-17T06:32:54;14.40;;;10.32;;
44276;SDS011;29973;43.742;1.236;2023-08-17T06:35:20;14.75;;;10.60;;
44276;SDS011;29973;43.742;1.236;2023-08-17T06:37:46;16.98;;;10.02;;
44276;SDS011;29973;43.742;1.236;2023-08-17T06:40:11;15.65;;;9.77;;
44276;SDS011;29973;43.742;1.236;2023-08-17T06:42:37;17.17;;;10.18;;
44276;SDS011;29973;43.742;1.236;2023-08-17T06:45:03;15.80;;;9.50;;
44276;SDS011;29973;43.742;1.236;2023-08-17T06:47:29;17.33;;;9.25;;
44276;SDS011;29973;43.742;1.236;2023-08-17T06:49:55;14.00;;;9.25;;
44276;SDS011;29973;43.742;1.236;2023-08-17T06:52:22;12.90;;;8.80;;
44276;SDS011;29973;43.742;1.236;2023-08-17T06:54:49;16.27;;;9.60;;
44276;SDS011;29973;43.742;1.236;2023-08-17T06:57:15;14.13;;;9.32;;
44276;SDS011;29973;43.742;1.236;2023-08-17T06:59:41;16.40;;;9.27;;
44276;SDS011;29973;43.742;1.236;2023-08-17T07:02:06;14.13;;;9.43;;
44276;SDS011;29973;43.742;1.236;2023-08-17T07:04:32;12.38;;;8.55;;
44276;SDS011;29973;43.742;1.236;2023-08-17T07:06:58;13.13;;;8.70;;
44276;SDS011;29973;43.742;1.236;2023-08-17T07:09:24;16.67;;;9.32;;
44276;SDS011;29973;43.742;1.236;2023-08-17T07:11:50;11.50;;;9.07;;
44276;SDS011;29973;43.742;1.236;2023-08-17T07:14:15;12.55;;;8.60;;
44276;SDS011;29973;43.742;1.236;2023-08-17T07:16:41;14.63;;;8.90;;
44276;SDS011;29973;43.742;1.236;2023-08-17T07:19:07;15.88;;;8.32;;
44276;SDS011;29973;43.742;1.236;2023-08-17T07:21:33;10.65;;;7.80;;
44276;SDS011;29973;43.742;1.236;2023-08-17T07:24:11;12.45;;;8.02;;
44276;SDS011;29973;43.742;1.236;2023-08-17T07:26:38;11.25;;;7.70;;
44276;SDS011;29973;43.742;1.236;2023-08-17T07:29:04;11.57;;;8.30;;
44276;SDS011;29973;43.742;1.236;2023-08-17T07:31:30;13.38;;;8.63;;
44276;SDS011;29973;43.742;1.236;2023-08-17T07:33:56;18.02;;;8.15;;
44276;SDS011;29973;43.742;1.236;2023-08-17T07:36:21;14.05;;;8.32;;
44276;SDS011;29973;43.742;1.236;2023-08-17T07:38:47;11.77;;;7.30;;
44276;SDS011;29973;43.742;1.236;2023-08-17T07:41:13;9.88;;;7.70;;
44276;SDS011;29973;43.742;1.236;2023-08-17T07:43:38;9.52;;;6.68;;
44276;SDS011;29973;43.742;1.236;2023-08-17T07:46:04;10.43;;;7.90;;
44276;SDS011;29973;43.742;1.236;2023-08-17T07:48:30;11.75;;;7.80;;
44276;SDS011;29973;43.742;1.236;2023-08-17T07:50:59;12.90;;;8.00;;
44276;SDS011;29973;43.742;1.236;2023-08-17T07:53:26;13.15;;;7.90;;
44276;SDS011;29973;43.742;1.236;2023-08-17T07:55:52;10.80;;;8.02;;
44276;SDS011;29973;43.742;1.236;2023-08-17T07:58:17;9.60;;;7.10;;
44276;SDS011;29973;43.742;1.236;2023-08-17T08:00:43;12.18;;;8.38;;
44276;SDS011;29973;43.742;1.236;2023-08-17T08:03:08;13.00;;;7.93;;
44276;SDS011;29973;43.742;1.236;2023-08-17T08:05:34;14.32;;;8.30;;
44276;SDS011;29973;43.742;1.236;2023-08-17T08:08:00;12.77;;;7.97;;
44276;SDS011;29973;43.742;1.236;2023-08-17T08:10:26;14.13;;;7.78;;
44276;SDS011;29973;43.742;1.236;2023-08-17T08:12:53;11.43;;;7.75;;
44276;SDS011;29973;43.742;1.236;2023-08-17T08:15:19;12.52;;;7.68;;
44276;SDS011;29973;43.742;1.236;2023-08-17T08:17:44;11.40;;;7.28;;
44276;SDS011;29973;43.742;1.236;2023-08-17T08:20:10;9.70;;;7.10;;
44276;SDS011;29973;43.742;1.236;2023-08-17T08:22:36;11.18;;;7.57;;
44276;SDS011;29973;43.742;1.236;2023-08-17T08:25:02;12.80;;;7.80;;
44276;SDS011;29973;43.742;1.236;2023-08-17T08:27:27;8.95;;;7.13;;
44276;SDS011;29973;43.742;1.236;2023-08-17T08:29:53;9.95;;;6.95;;
44276;SDS011;29973;43.742;1.236;2023-08-17T08:32:19;9.30;;;7.38;;
44276;SDS011;29973;43.742;1.236;2023-08-17T08:34:44;9.73;;;7.53;;
44276;SDS011;29973;43.742;1.236;2023-08-17T08:37:10;12.23;;;7.28;;
44276;SDS011;29973;43.742;1.236;2023-08-17T08:39:48;8.40;;;6.28;;
44276;SDS011;29973;43.742;1.236;2023-08-17T08:42:16;12.50;;;6.78;;
44276;SDS011;29973;43.742;1.236;2023-08-17T08:44:43;9.45;;;6.28;;
44276;SDS011;29973;43.742;1.236;2023-08-17T08:47:08;7.63;;;6.47;;
44276;SDS011;29973;43.742;1.236;2023-08-17T08:49:36;8.90;;;6.15;;
44276;SDS011;29973;43.742;1.236;2023-08-17T08:52:04;9.30;;;6.13;;
44276;SDS011;29973;43.742;1.236;2023-08-17T08:54:32;12.18;;;6.53;;
44276;SDS011;29973;43.742;1.236;2023-08-17T08:57:03;9.57;;;5.63;;
44276;SDS011;29973;43.742;1.236;2023-08-17T08:59:31;8.90;;;5.30;;
44276;SDS011;29973;43.742;1.236;2023-08-17T09:01:58;9.45;;;5.38;;
44276;SDS011;29973;43.742;1.236;2023-08-17T09:04:25;11.15;;;5.90;;
44276;SDS011;29973;43.742;1.236;2023-08-17T09:06:51;10.30;;;5.60;;
44276;SDS011;29973;43.742;1.236;2023-08-17T09:09:17;9.68;;;4.90;;
44276;SDS011;29973;43.742;1.236;2023-08-17T09:11:43;9.90;;;5.35;;
44276;SDS011;29973;43.742;1.236;2023-08-17T09:14:09;10.73;;;5.63;;
44276;SDS011;29973;43.742;1.236;2023-08-17T09:16:35;8.05;;;5.30;;
44276;SDS011;29973;43.742;1.236;2023-08-17T09:19:00;7.10;;;5.22;;
44276;SDS011;29973;43.742;1.236;2023-08-17T09:21:30;8.95;;;5.75;;
44276;SDS011;29973;43.742;1.236;2023-08-17T09:23:57;10.90;;;4.82;;
44276;SDS011;29973;43.742;1.236;2023-08-17T09:26:23;9.07;;;5.57;;
44276;SDS011;29973;43.742;1.236;2023-08-17T09:28:49;6.75;;;5.32;;
44276;SDS011;29973;43.742;1.236;2023-08-17T09:31:15;9.88;;;4.88;;
44276;SDS011;29973;43.742;1.236;2023-08-17T09:33:41;6.38;;;4.50;;
44276;SDS011;29973;43.742;1.236;2023-08-17T09:36:07;7.32;;;4.50;;
44276;SDS011;29973;43.742;1.236;2023-08-17T09:38:36;7.00;;;4.20;;
44276;SDS011;29973;43.742;1.236;2023-08-17T09:41:03;7.32;;;5.15;;
44276;SDS011;29973;43.742;1.236;2023-08-17T09:43:31;12.13;;;4.72;;
44276;SDS011;29973;43.742;1.236;2023-08-17T09:45:59;7.75;;;4.70;;
44276;SDS011;29973;43.742;1.236;2023-08-17T09:48:27;10.77;;;4.68;;
44276;SDS011;29973;43.742;1.236;2023-08-17T09:50:53;6.57;;;4.55;;
44276;SDS011;29973;43.742;1.236;2023-08-17T09:53:21;7.00;;;4.05;;
44276;SDS011;29973;43.742;1.236;2023-08-17T09:55:47;5.55;;;4.40;;
44276;SDS011;29973;43.742;1.236;2023-08-17T09:58:13;6.47;;;4.55;;
44276;SDS011;29973;43.742;1.236;2023-08-17T10:00:43;7.82;;;4.75;;
44276;SDS011;29973;43.742;1.236;2023-08-17T10:03:11;5.00;;;4.40;;
44276;SDS011;29973;43.742;1.236;2023-08-17T10:05:39;10.93;;;4.57;;
44276;SDS011;29973;43.742;1.236;2023-08-17T10:08:07;6.50;;;4.20;;
44276;SDS011;29973;43.742;1.236;2023-08-17T10:10:35;6.57;;;4.38;;
44276;SDS011;29973;43.742;1.236;2023-08-17T10:13:08;9.00;;;4.72;;
44276;SDS011;29973;43.742;1.236;2023-08-17T10:15:45;7.43;;;4.28;;
44276;SDS011;29973;43.742;1.236;2023-08-17T10:21:02;6.85;;;4.07;;
44276;SDS011;29973;43.742;1.236;2023-08-17T10:23:31;9.35;;;4.30;;
44276;SDS011;29973;43.742;1.236;2023-08-17T10:25:57;6.03;;;4.35;;
44276;SDS011;29973;43.742;1.236;2023-08-17T10:28:25;7.72;;;4.30;;
44276;SDS011;29973;43.742;1.236;2023-08-17T10:30:51;6.57;;;4.28;;
44276;SDS011;29973;43.742;1.236;2023-08-17T10:33:17;6.25;;;4.35;;
44276;SDS011;29973;43.742;1.236;2023-08-17T10:35:43;10.35;;;4.15;;
44276;SDS011;29973;43.742;1.236;2023-08-17T10:38:10;10.18;;;4.25;;
44276;SDS011;29973;43.742;1.236;2023-08-17T10:40:37;7.70;;;4.18;;
44276;SDS011;29973;43.742;1.236;2023-08-17T10:43:04;6.57;;;4.15;;
44276;SDS011;29973;43.742;1.236;2023-08-17T10:45:31;6.68;;;4.50;;
44276;SDS011;29973;43.742;1.236;2023-08-17T10:50:32;6.22;;;4.03;;
44276;SDS011;29973;43.742;1.236;2023-08-17T10:53:03;6.45;;;4.15;;
44276;SDS011;29973;43.742;1.236;2023-08-17T10:55:36;7.20;;;3.85;;
44276;SDS011;29973;43.742;1.236;2023-08-17T10:58:04;6.50;;;3.88;;
44276;SDS011;29973;43.742;1.236;2023-08-17T11:00:36;6.80;;;3.90;;
44276;SDS011;29973;43.742;1.236;2023-08-17T11:08:04;6.30;;;4.15;;
44276;SDS011;29973;43.742;1.236;2023-08-17T11:13:32;8.10;;;3.55;;
44276;SDS011;29973;43.742;1.236;2023-08-17T11:15:59;5.22;;;3.53;;
44276;SDS011;29973;43.742;1.236;2023-08-17T11:18:26;5.93;;;3.53;;
44276;SDS011;29973;43.742;1.236;2023-08-17T11:20:52;11.45;;;4.18;;
44276;SDS011;29973;43.742;1.236;2023-08-17T11:23:19;7.35;;;3.50;;
44276;SDS011;29973;43.742;1.236;2023-08-17T11:25:46;7.43;;;3.92;;
44276;SDS011;29973;43.742;1.236;2023-08-17T11:28:12;5.55;;;3.65;;
44276;SDS011;29973;43.742;1.236;2023-08-17T11:30:41;8.70;;;3.93;;
44276;SDS011;29973;43.742;1.236;2023-08-17T11:33:08;6.55;;;3.40;;
44276;SDS011;29973;43.742;1.236;2023-08-17T11:35:34;5.30;;;3.67;;
44276;SDS011;29973;43.742;1.236;2023-08-17T11:38:00;5.85;;;3.65;;
44276;SDS011;29973;43.742;1.236;2023-08-17T11:40:28;7.65;;;3.40;;
44276;SDS011;29973;43.742;1.236;2023-08-17T11:42:54;17.65;;;3.63;;
44276;SDS011;29973;43.742;1.236;2023-08-17T11:45:19;9.27;;;3.30;;
44276;SDS011;29973;43.742;1.236;2023-08-17T11:47:46;5.45;;;3.10;;
44276;SDS011;29973;43.742;1.236;2023-08-17T11:50:13;7.22;;;3.38;;
44276;SDS011;29973;43.742;1.236;2023-08-17T11:52:39;8.63;;;3.60;;
44276;SDS011;29973;43.742;1.236;2023-08-17T11:55:05;3.85;;;3.42;;
44276;SDS011;29973;43.742;1.236;2023-08-17T11:57:32;7.63;;;3.38;;
44276;SDS011;29973;43.742;1.236;2023-08-17T11:59:59;6.65;;;3.42;;
44276;SDS011;29973;43.742;1.236;2023-08-17T12:02:26;14.93;;;3.35;;
44276;SDS011;29973;43.742;1.236;2023-08-17T12:04:52;4.03;;;3.55;;
44276;SDS011;29973;43.742;1.236;2023-08-17T12:07:21;9.73;;;3.55;;
44276;SDS011;29973;43.742;1.236;2023-08-17T12:09:50;7.32;;;3.58;;
44276;SDS011;29973;43.742;1.236;2023-08-17T12:12:26;8.23;;;3.42;;
44276;SDS011;29973;43.742;1.236;2023-08-17T12:14:53;6.40;;;3.50;;
44276;SDS011;29973;43.742;1.236;2023-08-17T12:17:20;6.10;;;3.50;;
44276;SDS011;29973;43.742;1.236;2023-08-17T12:19:49;7.97;;;3.35;;
44276;SDS011;29973;43.742;1.236;2023-08-17T12:22:19;7.40;;;3.30;;
44276;SDS011;29973;43.742;1.236;2023-08-17T12:24:48;5.63;;;3.17;;
44276;SDS011;29973;43.742;1.236;2023-08-17T12:27:14;6.40;;;3.65;;
44276;SDS011;29973;43.742;1.236;2023-08-17T12:29:46;5.28;;;3.47;;
44276;SDS011;29973;43.742;1.236;2023-08-17T12:32:16;5.38;;;3.70;;
44276;SDS011;29973;43.742;1.236;2023-08-17T12:34:43;4.75;;;3.20;;
44276;SDS011;29973;43.742;1.236;2023-08-17T12:37:09;8.38;;;3.38;;
44276;SDS011;29973;43.742;1.236;2023-08-17T12:39:35;6.07;;;3.50;;
44276;SDS011;29973;43.742;1.236;2023-08-17T12:42:02;6.90;;;3.20;;
44276;SDS011;29973;43.742;1.236;2023-08-17T12:44:30;8.32;;;3.70;;
44276;SDS011;29973;43.742;1.236;2023-08-17T12:46:56;7.57;;;3.60;;
44276;SDS011;29973;43.742;1.236;2023-08-17T12:49:25;3.85;;;3.13;;
44276;SDS011;29973;43.742;1.236;2023-08-17T12:51:50;5.30;;;3.38;;
44276;SDS011;29973;43.742;1.236;2023-08-17T12:54:17;4.28;;;3.20;;
44276;SDS011;29973;43.742;1.236;2023-08-17T12:56:43;4.65;;;2.95;;
44276;SDS011;29973;43.742;1.236;2023-08-17T12:59:09;4.45;;;3.10;;
44276;SDS011;29973;43.742;1.236;2023-08-17T13:01:35;5.18;;;3.08;;
44276;SDS011;29973;43.742;1.236;2023-08-17T13:04:00;5.72;;;3.38;;
44276;SDS011;29973;43.742;1.236;2023-08-17T13:06:26;5.55;;;3.00;;
44276;SDS011;29973;43.742;1.236;2023-08-17T13:08:52;7.47;;;3.35;;
44276;SDS011;29973;43.742;1.236;2023-08-17T13:11:17;43.95;;;4.30;;
44276;SDS011;29973;43.742;1.236;2023-08-17T13:13:43;7.68;;;3.22;;
44276;SDS011;29973;43.742;1.236;2023-08-17T13:16:09;10.63;;;3.63;;
44276;SDS011;29973;43.742;1.236;2023-08-17T13:18:36;5.88;;;3.00;;
44276;SDS011;29973;43.742;1.236;2023-08-17T13:21:02;6.20;;;3.15;;
44276;SDS011;29973;43.742;1.236;2023-08-17T13:23:28;4.60;;;2.90;;
44276;SDS011;29973;43.742;1.236;2023-08-17T13:25:54;6.78;;;3.00;;
44276;SDS011;29973;43.742;1.236;2023-08-17T13:28:20;4.68;;;2.85;;
44276;SDS011;29973;43.742;1.236;2023-08-17T13:30:46;3.70;;;3.00;;
44276;SDS011;29973;43.742;1.236;2023-08-17T13:33:11;5.38;;;2.88;;
44276;SDS011;29973;43.742;1.236;2023-08-17T13:35:37;6.35;;;2.85;;
44276;SDS011;29973;43.742;1.236;2023-08-17T13:38:03;10.23;;;3.20;;
44276;SDS011;29973;43.742;1.236;2023-08-17T13:40:30;6.45;;;2.78;;
44276;SDS011;29973;43.742;1.236;2023-08-17T13:42:56;4.50;;;3.15;;
44276;SDS011;29973;43.742;1.236;2023-08-17T13:45:23;4.35;;;2.90;;
44276;SDS011;29973;43.742;1.236;2023-08-17T13:47:49;6.82;;;3.13;;
44276;SDS011;29973;43.742;1.236;2023-08-17T13:50:15;6.38;;;3.20;;
44276;SDS011;29973;43.742;1.236;2023-08-17T13:52:41;7.28;;;3.20;;
44276;SDS011;29973;43.742;1.236;2023-08-17T13:55:06;4.53;;;2.70;;
44276;SDS011;29973;43.742;1.236;2023-08-17T13:57:32;5.07;;;2.60;;
44276;SDS011;29973;43.742;1.236;2023-08-17T13:59:58;4.53;;;2.90;;
44276;SDS011;29973;43.742;1.236;2023-08-17T14:02:24;8.73;;;3.33;;
44276;SDS011;29973;43.742;1.236;2023-08-17T14:04:50;7.35;;;3.03;;
44276;SDS011;29973;43.742;1.236;2023-08-17T14:07:15;6.22;;;3.15;;
44276;SDS011;29973;43.742;1.236;2023-08-17T14:09:41;6.50;;;3.22;;
44276;SDS011;29973;43.742;1.236;2023-08-17T14:12:07;5.13;;;3.20;;
44276;SDS011;29973;43.742;1.236;2023-08-17T14:14:33;4.82;;;3.47;;
44276;SDS011;29973;43.742;1.236;2023-08-17T14:17:00;6.95;;;3.22;;
44276;SDS011;29973;43.742;1.236;2023-08-17T14:19:27;5.95;;;3.22;;
44276;SDS011;29973;43.742;1.236;2023-08-17T14:21:53;8.77;;;3.25;;
44276;SDS011;29973;43.742;1.236;2023-08-17T14:24:19;4.35;;;2.60;;
44276;SDS011;29973;43.742;1.236;2023-08-17T14:26:44;5.78;;;3.30;;
44276;SDS011;29973;43.742;1.236;2023-08-17T14:29:10;4.28;;;2.75;;
44276;SDS011;29973;43.742;1.236;2023-08-17T14:31:36;3.95;;;2.80;;
44276;SDS011;29973;43.742;1.236;2023-08-17T14:34:01;8.35;;;2.67;;
44276;SDS011;29973;43.742;1.236;2023-08-17T14:36:27;6.22;;;2.78;;
44276;SDS011;29973;43.742;1.236;2023-08-17T14:38:53;4.03;;;2.72;;
44276;SDS011;29973;43.742;1.236;2023-08-17T14:41:18;4.75;;;2.72;;
44276;SDS011;29973;43.742;1.236;2023-08-17T14:43:44;4.47;;;2.80;;
44276;SDS011;29973;43.742;1.236;2023-08-17T14:46:10;5.88;;;2.67;;
44276;SDS011;29973;43.742;1.236;2023-08-17T14:48:36;7.07;;;2.80;;
44276;SDS011;29973;43.742;1.236;2023-08-17T14:51:02;13.25;;;3.03;;